Time;durP1;ratioP1;P1;durP2;ratioP2;P2;SDS_P1;SDS_P2;PMS_P1;PMS_P2;Temp;Humidity;BMP_temperature;BMP_pressure;BME280_temperature;BME280_humidity;BME280_pressure;Samples;Min_cycle;Max_cycle;Signal;HPM_P1;HPM_P2
2021/09/04 00:01:16;;;;;;;24.52;15.43;;;13.90;99.90;;;;;;4953859;29;20051;-70
2021/09/04 00:03:42;;;;;;;28.63;16.10;;;13.90;99.90;;;;;;4951643;28;20039;-70
2021/09/04 00:06:07;;;;;;;28.52;15.95;;;13.90;99.90;;;;;;4951930;29;20027;-70
2021/09/04 00:08:33;;;;;;;28.88;15.50;;;13.80;99.90;;;;;;4954087;29;20031;-70
2021/09/04 00:10:58;;;;;;;25.92;15.02;;;13.90;99.90;;;;;;4951585;28;20555;-70
2021/09/04 00:13:24;;;;;;;22.75;14.70;;;13.80;99.90;;;;;;4952658;28;20111;-70
2021/09/04 00:15:49;;;;;;;23.38;15.48;;;13.80;99.90;;;;;;4954936;28;20478;-70
2021/09/04 00:18:15;;;;;;;35.50;16.67;;;13.80;99.90;;;;;;4951567;29;20043;-70
2021/09/04 00:20:40;;;;;;;27.13;15.73;;;13.80;99.90;;;;;;4951133;28;20039;-70
2021/09/04 00:23:06;;;;;;;25.65;15.18;;;13.80;99.90;;;;;;4953407;28;20077;-71
2021/09/04 00:25:32;;;;;;;25.58;15.60;;;13.70;99.90;;;;;;4952261;29;20378;-70
2021/09/04 00:27:57;;;;;;;31.42;15.68;;;13.70;99.90;;;;;;4954252;28;20043;-70
2021/09/04 00:30:23;;;;;;;26.38;15.38;;;13.70;99.90;;;;;;4953445;28;20031;-70
2021/09/04 00:32:48;;;;;;;27.35;16.00;;;13.60;99.90;;;;;;4954330;29;20042;-70
2021/09/04 00:35:14;;;;;;;26.70;15.63;;;13.60;99.90;;;;;;4952968;28;20093;-70
2021/09/04 00:37:40;;;;;;;28.90;15.57;;;13.60;99.90;;;;;;4953572;28;20544;-70
2021/09/04 00:40:06;;;;;;;28.58;15.93;;;13.60;99.90;;;;;;4952365;28;20410;-70
2021/09/04 00:42:32;;;;;;;49.70;15.02;;;13.50;99.90;;;;;;4954019;28;20027;-70
2021/09/04 00:44:57;;;;;;;24.77;15.32;;;13.50;99.90;;;;;;4954775;28;20401;-70
2021/09/04 00:47:23;;;;;;;25.73;16.08;;;13.40;99.90;;;;;;4953197;28;20031;-70
2021/09/04 00:49:49;;;;;;;26.73;16.13;;;13.40;99.90;;;;;;4953412;28;20031;-70
2021/09/04 00:52:16;;;;;;;23.58;15.50;;;13.40;99.90;;;;;;4953030;28;20020;-70
2021/09/04 00:54:41;;;;;;;26.88;16.63;;;13.40;99.90;;;;;;4951170;28;20023;-71
2021/09/04 00:57:07;;;;;;;29.10;17.13;;;13.40;99.90;;;;;;4954642;28;20437;-70
2021/09/04 00:59:34;;;;;;;30.83;17.50;;;13.30;99.90;;;;;;4952983;28;20046;-70
2021/09/04 01:01:59;;;;;;;34.75;16.73;;;13.30;99.90;;;;;;4968990;28;20054;-70
2021/09/04 01:04:25;;;;;;;26.85;15.27;;;13.30;99.90;;;;;;4950147;28;20446;-71
2021/09/04 01:06:51;;;;;;;30.45;17.52;;;13.30;99.90;;;;;;4952526;28;20053;-71
2021/09/04 01:09:17;;;;;;;28.10;16.60;;;13.30;99.90;;;;;;4951044;28;20422;-70
2021/09/04 01:11:42;;;;;;;28.65;16.27;;;13.20;99.90;;;;;;4952904;28;20035;-70
2021/09/04 01:14:08;;;;;;;34.33;17.85;;;13.20;99.90;;;;;;4950832;28;20396;-71
2021/09/04 01:16:36;;;;;;;30.98;16.98;;;13.20;99.90;;;;;;4953912;28;20027;-70
2021/09/04 01:19:03;;;;;;;28.92;16.85;;;13.20;99.90;;;;;;4952586;28;20026;-70
2021/09/04 01:21:29;;;;;;;28.23;16.52;;;13.20;99.90;;;;;;4953790;28;20035;-70
2021/09/04 01:23:54;;;;;;;32.67;16.00;;;13.10;99.90;;;;;;4951184;28;20038;-70
2021/09/04 01:26:22;;;;;;;31.20;17.20;;;13.10;99.90;;;;;;4950363;28;20027;-70
2021/09/04 01:28:47;;;;;;;29.85;16.33;;;13.10;99.90;;;;;;4952011;28;20042;-70
2021/09/04 01:31:13;;;;;;;30.02;17.55;;;13.00;99.90;;;;;;4953021;28;20031;-70
2021/09/04 01:33:43;;;;;;;27.83;16.70;;;13.00;99.90;;;;;;4951419;29;20039;-70
2021/09/04 01:36:10;;;;;;;33.10;17.52;;;13.00;99.90;;;;;;4952090;29;20429;-70
2021/09/04 01:38:36;;;;;;;28.30;17.95;;;13.00;99.90;;;;;;4950981;28;20046;-70
2021/09/04 01:41:01;;;;;;;35.72;17.88;;;12.90;99.90;;;;;;4952203;28;20058;-70
2021/09/04 01:43:27;;;;;;;34.22;17.75;;;12.90;99.90;;;;;;4952418;28;20541;-70
2021/09/04 01:45:52;;;;;;;28.58;17.58;;;12.90;99.90;;;;;;4952256;28;20031;-70
2021/09/04 01:48:18;;;;;;;33.63;17.88;;;12.90;99.90;;;;;;4951287;29;20054;-70
2021/09/04 01:50:43;;;;;;;31.23;19.05;;;12.90;99.90;;;;;;4950514;29;20038;-70
2021/09/04 01:53:09;;;;;;;37.83;18.42;;;12.90;99.90;;;;;;4948872;28;20026;-70
2021/09/04 01:55:34;;;;;;;32.75;18.85;;;12.80;99.90;;;;;;4951290;28;20663;-70
2021/09/04 01:58:00;;;;;;;34.10;17.40;;;12.80;99.90;;;;;;4952138;28;20030;-70
2021/09/04 02:00:25;;;;;;;36.78;18.38;;;12.80;99.90;;;;;;4951566;28;20098;-70
2021/09/04 02:02:51;;;;;;;37.90;19.73;;;12.80;99.90;;;;;;4950761;28;20065;-71
2021/09/04 02:05:16;;;;;;;39.17;19.75;;;12.80;99.90;;;;;;4946446;29;20060;-70
2021/09/04 02:07:42;;;;;;;31.75;18.42;;;12.80;99.90;;;;;;4951233;29;20508;-71
2021/09/04 02:10:08;;;;;;;36.13;18.20;;;12.80;99.90;;;;;;4951652;28;20038;-70
2021/09/04 02:12:34;;;;;;;30.30;16.75;;;12.70;99.90;;;;;;4951387;28;20035;-70
2021/09/04 02:15:00;;;;;;;34.70;17.63;;;12.80;99.90;;;;;;4951097;28;20027;-70
2021/09/04 02:17:25;;;;;;;33.58;18.17;;;12.80;99.90;;;;;;4952364;28;20560;-70
2021/09/04 02:19:50;;;;;;;33.13;18.42;;;12.70;99.90;;;;;;4951572;28;20031;-70
2021/09/04 02:22:16;;;;;;;37.63;18.40;;;12.70;99.90;;;;;;4951636;28;20035;-71
2021/09/04 02:24:42;;;;;;;39.50;19.08;;;12.70;99.90;;;;;;4951585;28;20545;-70
2021/09/04 02:27:07;;;;;;;34.60;18.88;;;12.70;99.90;;;;;;4951199;28;20062;-70
2021/09/04 02:29:33;;;;;;;35.53;18.67;;;12.70;99.90;;;;;;4952766;29;20042;-70
2021/09/04 02:31:59;;;;;;;36.45;19.10;;;12.70;99.90;;;;;;4952143;28;20054;-70
2021/09/04 02:34:25;;;;;;;37.22;20.02;;;12.70;99.90;;;;;;4951268;28;20036;-70
2021/09/04 02:36:50;;;;;;;34.47;18.73;;;12.60;99.90;;;;;;4952660;28;20035;-70
2021/09/04 02:39:16;;;;;;;34.70;17.65;;;12.60;99.90;;;;;;4948768;28;20023;-71
2021/09/04 02:41:42;;;;;;;45.10;20.60;;;12.60;99.90;;;;;;4951737;28;20078;-70
2021/09/04 02:44:08;;;;;;;42.60;18.80;;;12.60;99.90;;;;;;4951105;28;20114;-70
2021/09/04 02:46:33;;;;;;;36.95;19.38;;;12.60;99.90;;;;;;4948021;29;20068;-71
2021/09/04 02:48:59;;;;;;;37.00;18.45;;;12.60;99.90;;;;;;4951867;28;20082;-70
2021/09/04 02:51:24;;;;;;;34.22;18.27;;;12.50;99.90;;;;;;4952074;28;20048;-70
2021/09/04 02:53:50;;;;;;;40.97;19.58;;;12.50;99.90;;;;;;4952106;28;20041;-70
2021/09/04 02:56:16;;;;;;;40.05;19.17;;;12.50;99.90;;;;;;4948085;29;20474;-70
2021/09/04 02:58:41;;;;;;;31.65;18.63;;;12.50;99.90;;;;;;4952219;28;20508;-70
2021/09/04 03:01:07;;;;;;;40.20;19.50;;;12.50;99.90;;;;;;4950171;28;20058;-71
2021/09/04 03:03:32;;;;;;;45.22;21.52;;;12.40;99.90;;;;;;4951945;28;20094;-71
2021/09/04 03:06:01;;;;;;;35.50;18.50;;;12.50;99.90;;;;;;4951554;29;20032;-70
2021/09/04 03:08:27;;;;;;;41.58;19.35;;;12.50;99.90;;;;;;4951978;28;20041;-70
2021/09/04 03:10:53;;;;;;;43.10;20.65;;;12.60;99.90;;;;;;4951534;28;20377;-70
2021/09/04 03:13:19;;;;;;;38.47;18.77;;;12.60;99.90;;;;;;4951857;28;20028;-71
2021/09/04 03:15:44;;;;;;;30.52;17.48;;;12.60;99.90;;;;;;4950194;28;20497;-71
2021/09/04 03:18:10;;;;;;;38.47;19.83;;;12.70;99.90;;;;;;4955263;29;20140;-70
2021/09/04 03:20:35;;;;;;;40.13;20.80;;;12.70;99.90;;;;;;4955587;29;20478;-70
2021/09/04 03:23:01;;;;;;;43.90;23.75;;;12.70;99.90;;;;;;4953682;28;20043;-71
2021/09/04 03:25:26;;;;;;;46.10;23.17;;;12.80;99.90;;;;;;4952609;28;20042;-70
2021/09/04 03:27:52;;;;;;;47.10;22.63;;;12.80;99.90;;;;;;4954619;28;20087;-71
2021/09/04 03:30:17;;;;;;;51.00;23.63;;;12.80;99.90;;;;;;4954648;28;20035;-70
2021/09/04 03:32:43;;;;;;;47.22;23.88;;;12.80;99.90;;;;;;4956186;29;20090;-70
2021/09/04 03:35:09;;;;;;;48.38;24.13;;;12.90;99.90;;;;;;4954152;28;20389;-70
2021/09/04 03:37:35;;;;;;;48.63;24.92;;;12.80;99.90;;;;;;4953934;28;20110;-70
2021/09/04 03:40:00;;;;;;;51.55;25.42;;;12.90;99.90;;;;;;4952363;28;20446;-70
2021/09/04 03:42:26;;;;;;;50.42;25.63;;;12.80;99.90;;;;;;4945665;28;20043;-70
2021/09/04 03:44:51;;;;;;;44.75;23.98;;;12.80;99.90;;;;;;4947386;28;20031;-72
2021/09/04 03:47:17;;;;;;;54.88;26.65;;;12.80;99.90;;;;;;4963675;28;20478;-71
2021/09/04 03:49:42;;;;;;;53.40;26.50;;;12.80;99.90;;;;;;4956523;28;20474;-70
2021/09/04 03:52:08;;;;;;;60.75;25.77;;;12.80;99.90;;;;;;4965012;28;20038;-71
2021/09/04 03:54:33;;;;;;;58.95;27.92;;;12.80;99.90;;;;;;4961894;28;20031;-70
2021/09/04 03:56:59;;;;;;;45.70;23.88;;;12.80;99.90;;;;;;4960283;28;20591;-70
2021/09/04 03:59:26;;;;;;;56.58;26.70;;;12.80;99.90;;;;;;4959611;28;20501;-71
2021/09/04 04:01:51;;;;;;;49.42;24.15;;;12.80;99.90;;;;;;4956254;28;20497;-70
2021/09/04 04:04:17;;;;;;;53.20;25.30;;;12.80;99.90;;;;;;4957296;28;20137;-70
2021/09/04 04:06:42;;;;;;;50.80;23.65;;;12.80;99.90;;;;;;4963866;28;20485;-71
2021/09/04 04:09:08;;;;;;;46.58;22.15;;;12.80;99.90;;;;;;4958643;28;20123;-71
2021/09/04 04:11:34;;;;;;;54.55;24.98;;;12.80;99.90;;;;;;4961560;28;20032;-72
2021/09/04 04:13:59;;;;;;;58.40;25.13;;;12.80;99.90;;;;;;4966276;28;20417;-70
2021/09/04 04:16:25;;;;;;;54.20;25.45;;;12.80;99.90;;;;;;4947847;28;20041;-70
2021/09/04 04:18:50;;;;;;;45.72;23.92;;;12.70;99.90;;;;;;4954671;28;20039;-71
2021/09/04 04:21:16;;;;;;;55.00;26.02;;;12.70;99.90;;;;;;4962752;28;20110;-69
2021/09/04 04:23:41;;;;;;;60.47;25.60;;;12.70;99.90;;;;;;4950971;28;20035;-70
2021/09/04 04:26:07;;;;;;;55.10;26.15;;;12.70;99.90;;;;;;4948488;28;20024;-71
2021/09/04 04:28:33;;;;;;;56.05;26.00;;;12.70;99.90;;;;;;4950584;28;20062;-71
2021/09/04 04:31:00;;;;;;;57.88;26.20;;;12.70;99.90;;;;;;4953477;28;20034;-70
2021/09/04 04:33:25;;;;;;;69.20;28.05;;;12.70;99.90;;;;;;4950623;28;20065;-71
2021/09/04 04:35:51;;;;;;;53.25;25.27;;;12.70;99.90;;;;;;4956939;28;20050;-71
2021/09/04 04:38:16;;;;;;;56.13;27.52;;;12.80;99.90;;;;;;4952620;28;20051;-70
2021/09/04 04:40:42;;;;;;;62.28;27.25;;;12.70;99.90;;;;;;4955262;28;20397;-68
2021/09/04 04:43:07;;;;;;;63.80;28.55;;;12.80;99.90;;;;;;4956824;28;20029;-68
2021/09/04 04:45:35;;;;;;;70.85;29.73;;;12.80;99.90;;;;;;4953083;28;20039;-69
2021/09/04 04:48:01;;;;;;;66.53;28.35;;;12.80;99.90;;;;;;4954105;28;20533;-69
2021/09/04 04:50:26;;;;;;;65.80;26.45;;;12.90;99.90;;;;;;4952343;28;20031;-70
2021/09/04 04:52:52;;;;;;;69.28;29.05;;;12.90;99.90;;;;;;4946083;28;20024;-70
2021/09/04 04:55:18;;;;;;;61.97;26.42;;;12.90;99.90;;;;;;4946511;28;20027;-69
2021/09/04 04:57:44;;;;;;;59.45;27.02;;;12.90;99.90;;;;;;4954671;29;20028;-69
2021/09/04 05:00:10;;;;;;;69.20;27.95;;;12.90;99.90;;;;;;4941329;29;20063;-69
2021/09/04 05:02:36;;;;;;;57.20;24.23;;;12.90;99.90;;;;;;4939380;28;20031;-69
2021/09/04 05:05:01;;;;;;;65.85;26.58;;;12.90;99.90;;;;;;4946546;29;20418;-67
2021/09/04 05:07:27;;;;;;;67.22;28.58;;;12.90;99.90;;;;;;4952515;28;20449;-68
2021/09/04 05:09:52;;;;;;;71.30;27.75;;;12.90;99.90;;;;;;4950817;28;20034;-67
2021/09/04 05:12:18;;;;;;;72.28;28.40;;;12.90;99.90;;;;;;4953741;29;20027;-69
2021/09/04 05:14:47;;;;;;;71.35;25.85;;;12.90;99.90;;;;;;4951480;28;20523;-68
2021/09/04 05:17:17;;;;;;;66.72;28.55;;;13.00;99.90;;;;;;4964797;28;20031;-67
2021/09/04 05:19:49;;;;;;;73.13;29.38;;;12.90;99.90;;;;;;4950695;28;20045;-70
2021/09/04 05:22:17;;;;;;;64.85;27.50;;;12.90;99.90;;;;;;4946075;29;20042;-71
2021/09/04 05:24:43;;;;;;;71.00;26.80;;;13.00;99.90;;;;;;4952410;29;20106;-69
2021/09/04 05:27:08;;;;;;;62.72;26.40;;;13.00;99.90;;;;;;4952293;28;20469;-67
2021/09/04 05:29:34;;;;;;;71.40;28.90;;;13.00;99.90;;;;;;4951868;28;20058;-68
2021/09/04 05:32:00;;;;;;;73.88;29.25;;;13.00;99.90;;;;;;4952050;28;20035;-67
2021/09/04 05:34:25;;;;;;;66.65;28.85;;;13.00;99.90;;;;;;4966279;28;20053;-68
2021/09/04 05:36:51;;;;;;;71.82;28.02;;;13.00;99.90;;;;;;4951436;28;20031;-68
2021/09/04 05:39:16;;;;;;;67.45;27.73;;;13.00;99.90;;;;;;4950729;28;20485;-68
2021/09/04 05:41:42;;;;;;;59.63;26.20;;;13.00;99.90;;;;;;4952083;29;20066;-68
2021/09/04 05:44:07;;;;;;;58.55;24.83;;;13.00;99.90;;;;;;4945858;28;20035;-69
2021/09/04 05:46:33;;;;;;;58.20;24.40;;;13.00;99.90;;;;;;4967039;28;20027;-68
2021/09/04 05:48:58;;;;;;;67.63;26.45;;;12.90;99.90;;;;;;4951932;28;20027;-68
2021/09/04 05:51:24;;;;;;;64.20;28.13;;;12.90;99.90;;;;;;4951612;28;20035;-69
2021/09/04 05:53:49;;;;;;;74.20;28.63;;;13.00;99.90;;;;;;4950033;29;20035;-68
2021/09/04 05:56:15;;;;;;;66.28;27.13;;;12.90;99.90;;;;;;4953362;28;20378;-68
2021/09/04 05:58:40;;;;;;;68.43;27.52;;;13.00;99.90;;;;;;4953679;28;20063;-68
2021/09/04 06:01:07;;;;;;;61.92;24.38;;;13.00;99.90;;;;;;4952409;28;20050;-69
2021/09/04 06:03:32;;;;;;;68.72;27.25;;;13.00;99.90;;;;;;4953412;28;20450;-69
2021/09/04 06:06:00;;;;;;;55.13;26.05;;;13.00;99.90;;;;;;4953600;28;20035;-68
2021/09/04 06:08:26;;;;;;;68.57;26.27;;;13.10;99.90;;;;;;4952637;28;20027;-68
2021/09/04 06:10:52;;;;;;;57.65;26.52;;;13.00;99.90;;;;;;4953168;29;20042;-69
2021/09/04 06:13:18;;;;;;;65.88;28.45;;;13.10;99.90;;;;;;4952686;28;20032;-68
2021/09/04 06:15:44;;;;;;;65.90;26.75;;;13.10;99.90;;;;;;4953018;29;20035;-68
2021/09/04 06:18:16;;;;;;;68.70;26.30;;;13.10;99.90;;;;;;4951491;29;20034;-68
2021/09/04 06:20:42;;;;;;;60.90;25.85;;;13.10;99.90;;;;;;4952798;28;20059;-68
2021/09/04 06:23:07;;;;;;;58.15;26.17;;;13.20;99.90;;;;;;4951628;28;20065;-68
2021/09/04 06:25:34;;;;;;;59.55;26.63;;;13.20;99.90;;;;;;4952732;28;20039;-68
2021/09/04 06:28:00;;;;;;;57.75;24.42;;;13.20;99.90;;;;;;4951687;28;20032;-68
2021/09/04 06:30:26;;;;;;;63.42;26.77;;;13.20;99.90;;;;;;4952239;28;20038;-68
2021/09/04 06:32:51;;;;;;;57.00;25.17;;;13.30;99.90;;;;;;4951391;28;20030;-68
2021/09/04 06:35:17;;;;;;;68.80;26.30;;;13.30;99.90;;;;;;4948312;29;20031;-68
2021/09/04 06:37:42;;;;;;;57.33;24.33;;;13.30;99.90;;;;;;4951715;28;20030;-69
2021/09/04 06:40:08;;;;;;;57.20;24.30;;;13.40;99.90;;;;;;4950487;28;20050;-69
2021/09/04 06:42:34;;;;;;;61.50;27.40;;;13.40;99.90;;;;;;4952012;28;20035;-68
2021/09/04 06:44:59;;;;;;;56.25;25.20;;;13.40;99.90;;;;;;4951295;28;20389;-69
2021/09/04 06:47:25;;;;;;;60.25;26.48;;;13.40;99.90;;;;;;4950711;28;20031;-69
2021/09/04 06:49:50;;;;;;;56.83;25.05;;;13.50;99.90;;;;;;4944926;28;20474;-69
2021/09/04 06:52:16;;;;;;;52.05;25.58;;;13.50;99.90;;;;;;4954700;28;20030;-67
2021/09/04 06:54:41;;;;;;;55.85;25.45;;;13.50;99.90;;;;;;4953822;29;20111;-67
2021/09/04 06:57:07;;;;;;;47.03;23.25;;;13.40;99.90;;;;;;4948013;28;20118;-67
2021/09/04 06:59:32;;;;;;;51.50;24.85;;;13.50;99.90;;;;;;4956492;28;20027;-67
2021/09/04 07:01:58;;;;;;;54.65;24.05;;;13.50;99.90;;;;;;4962410;28;20054;-68
2021/09/04 07:04:23;;;;;;;52.65;25.55;;;13.50;99.90;;;;;;4976135;28;20037;-68
2021/09/04 07:06:49;;;;;;;44.47;22.70;;;13.60;99.90;;;;;;4960351;28;20051;-67
2021/09/04 07:09:15;;;;;;;43.45;21.25;;;13.60;99.90;;;;;;4959579;28;20035;-67
2021/09/04 07:11:40;;;;;;;41.67;22.67;;;13.60;99.90;;;;;;4962487;28;20039;-67
2021/09/04 07:14:09;;;;;;;43.88;22.23;;;13.70;99.90;;;;;;4960985;28;20351;-67
2021/09/04 07:16:34;;;;;;;48.53;23.48;;;13.70;99.90;;;;;;4966201;28;20038;-67
2021/09/04 07:19:00;;;;;;;43.97;23.73;;;13.80;99.90;;;;;;4975107;28;20035;-67
2021/09/04 07:21:25;;;;;;;40.65;20.10;;;13.80;99.90;;;;;;4961045;28;20028;-67
2021/09/04 07:23:51;;;;;;;45.45;23.77;;;13.80;99.90;;;;;;4956471;28;20043;-67
2021/09/04 07:26:17;;;;;;;43.90;22.60;;;13.90;99.90;;;;;;4952448;28;20143;-67
2021/09/04 07:28:42;;;;;;;35.13;20.60;;;13.90;99.90;;;;;;4952015;28;20098;-68
2021/09/04 07:31:07;;;;;;;37.75;21.08;;;13.90;99.90;;;;;;4945643;28;20030;-67
2021/09/04 07:33:33;;;;;;;34.55;20.73;;;14.00;99.90;;;;;;4945758;28;20096;-68
2021/09/04 07:35:59;;;;;;;37.00;20.73;;;14.00;99.90;;;;;;4951882;28;20222;-69
2021/09/04 07:38:25;;;;;;;36.75;21.77;;;14.00;99.90;;;;;;4948481;28;20039;-68
2021/09/04 07:40:51;;;;;;;35.08;20.23;;;14.00;99.90;;;;;;4962758;28;20026;-67
2021/09/04 07:43:17;;;;;;;40.47;20.30;;;14.00;99.90;;;;;;4951571;28;20035;-68
2021/09/04 07:45:42;;;;;;;35.72;20.33;;;14.00;99.90;;;;;;4952301;28;20121;-69
2021/09/04 07:48:08;;;;;;;35.17;19.50;;;14.00;99.90;;;;;;4958865;28;20031;-69
2021/09/04 07:50:34;;;;;;;29.67;17.88;;;14.00;99.90;;;;;;4961259;28;20480;-69
2021/09/04 07:53:00;;;;;;;31.45;19.65;;;14.00;99.90;;;;;;4951287;28;20102;-69
2021/09/04 07:55:25;;;;;;;38.50;20.95;;;14.00;99.90;;;;;;4951798;28;20158;-68
2021/09/04 07:57:51;;;;;;;32.88;19.02;;;14.10;99.90;;;;;;4952781;28;20027;-68
2021/09/04 08:00:17;;;;;;;33.92;19.52;;;14.10;99.90;;;;;;4953731;29;20063;-68
2021/09/04 08:02:42;;;;;;;33.97;19.95;;;14.10;99.90;;;;;;4953336;28;20024;-69
2021/09/04 08:05:09;;;;;;;39.17;21.33;;;14.20;99.90;;;;;;4946714;28;20083;-69
2021/09/04 08:07:35;;;;;;;41.65;22.55;;;14.20;99.90;;;;;;4950554;28;20039;-69
2021/09/04 08:10:01;;;;;;;31.20;18.67;;;14.20;99.90;;;;;;4953405;28;20440;-68
2021/09/04 08:12:27;;;;;;;35.50;20.23;;;14.30;99.90;;;;;;4954624;29;20028;-68
2021/09/04 08:14:52;;;;;;;36.92;20.50;;;14.40;99.90;;;;;;4953549;28;20381;-68
2021/09/04 08:17:18;;;;;;;31.73;19.58;;;14.40;99.90;;;;;;4955041;28;20031;-68
2021/09/04 08:19:43;;;;;;;29.55;18.20;;;14.50;99.90;;;;;;4955045;29;20385;-68
2021/09/04 08:22:09;;;;;;;34.67;19.13;;;14.60;99.90;;;;;;4953460;28;20054;-68
2021/09/04 08:24:34;;;;;;;33.35;18.88;;;14.70;99.90;;;;;;4953345;28;20035;-68
2021/09/04 08:27:01;;;;;;;35.47;19.67;;;14.80;99.90;;;;;;4953775;28;20086;-68
2021/09/04 08:29:26;;;;;;;32.55;19.13;;;14.90;99.90;;;;;;4949819;28;20023;-68
2021/09/04 08:31:52;;;;;;;28.90;17.83;;;15.00;99.90;;;;;;4948423;28;20030;-68
2021/09/04 08:34:18;;;;;;;36.95;20.80;;;15.10;99.90;;;;;;4952221;28;20023;-68
2021/09/04 08:36:43;;;;;;;34.10;19.80;;;15.10;99.90;;;;;;4953516;28;20027;-68
2021/09/04 08:39:09;;;;;;;32.83;19.13;;;15.20;99.90;;;;;;4952581;28;20062;-68
2021/09/04 08:41:36;;;;;;;30.92;19.52;;;15.20;99.90;;;;;;4953713;28;20034;-69
2021/09/04 08:44:03;;;;;;;30.48;18.20;;;15.20;99.90;;;;;;4952709;28;20516;-68
2021/09/04 08:46:32;;;;;;;28.60;18.95;;;15.30;99.90;;;;;;4954317;28;20035;-68
2021/09/04 08:49:02;;;;;;;31.33;19.50;;;15.40;99.90;;;;;;4953849;29;20031;-68
2021/09/04 08:51:29;;;;;;;30.33;17.25;;;15.50;99.90;;;;;;4954983;28;20032;-68
2021/09/04 08:53:55;;;;;;;29.52;18.40;;;15.70;99.90;;;;;;4951316;28;20505;-68
2021/09/04 08:56:20;;;;;;;28.88;18.58;;;15.90;99.90;;;;;;4951242;28;20035;-68
2021/09/04 08:58:46;;;;;;;25.20;17.25;;;16.00;99.90;;;;;;4952090;28;20038;-68
2021/09/04 09:01:21;;;;;;;25.80;17.70;;;16.10;99.90;;;;;;4952587;29;20078;-68
2021/09/04 09:03:49;;;;;;;25.42;16.00;;;16.20;99.70;;;;;;4940782;28;20050;-68
2021/09/04 09:06:31;;;;;;;27.08;17.70;;;16.30;99.40;;;;;;4945611;28;20089;-69
2021/09/04 09:08:57;;;;;;;22.83;15.30;;;16.40;99.20;;;;;;4952835;29;20025;-68
2021/09/04 09:11:23;;;;;;;24.08;17.08;;;16.50;99.00;;;;;;4953227;28;20059;-68
2021/09/04 09:13:51;;;;;;;24.63;17.10;;;16.50;98.80;;;;;;4953085;28;20106;-68
2021/09/04 09:16:18;;;;;;;24.50;16.52;;;16.60;97.90;;;;;;4950643;29;20030;-68
2021/09/04 09:19:13;;;;;;;23.17;17.13;;;16.60;97.90;;;;;;4953259;29;20390;-69
2021/09/04 09:21:40;;;;;;;23.23;15.98;;;16.60;97.50;;;;;;4952391;29;20485;-68
2021/09/04 09:24:19;;;;;;;21.98;15.38;;;16.50;97.40;;;;;;4951674;28;20031;-68
2021/09/04 09:26:50;;;;;;;22.88;14.95;;;16.50;97.20;;;;;;4936189;28;20114;-69
2021/09/04 09:29:49;;;;;;;21.35;14.60;;;16.60;97.20;;;;;;4951305;29;20037;-69
2021/09/04 09:32:15;;;;;;;22.85;14.98;;;16.70;96.90;;;;;;4937357;28;20050;-69
2021/09/04 09:34:45;;;;;;;23.27;16.35;;;16.70;96.90;;;;;;4950517;28;20027;-69
2021/09/04 09:37:13;;;;;;;19.73;14.88;;;16.80;96.70;;;;;;4947922;28;20027;-69
2021/09/04 09:39:42;;;;;;;23.52;16.17;;;16.70;96.50;;;;;;4951031;28;20035;-68
2021/09/04 09:42:11;;;;;;;21.77;15.48;;;16.70;96.40;;;;;;4952686;28;20034;-68
2021/09/04 09:44:37;;;;;;;20.55;14.35;;;16.60;96.20;;;;;;4952852;28;20027;-69
2021/09/04 09:47:12;;;;;;;22.05;15.13;;;16.60;96.50;;;;;;4951326;28;20074;-69
2021/09/04 09:49:43;;;;;;;22.20;14.85;;;16.60;96.30;;;;;;4952788;28;20118;-68
2021/09/04 09:52:11;;;;;;;21.45;14.82;;;16.70;96.30;;;;;;4952057;28;20062;-68
2021/09/04 09:54:37;;;;;;;20.83;13.80;;;16.80;96.20;;;;;;4952477;28;20027;-68
2021/09/04 09:57:05;;;;;;;19.75;14.27;;;16.90;96.10;;;;;;4948041;28;20082;-69
2021/09/04 09:59:31;;;;;;;21.70;14.50;;;16.90;95.80;;;;;;4949359;28;20065;-68
2021/09/04 10:01:58;;;;;;;22.35;15.85;;;16.80;95.90;;;;;;4949861;28;20470;-68
2021/09/04 10:04:28;;;;;;;20.33;13.32;;;16.90;95.90;;;;;;4948851;28;20121;-68
2021/09/04 10:06:55;;;;;;;22.63;13.57;;;17.20;96.00;;;;;;4951820;29;20050;-69
2021/09/04 10:09:25;;;;;;;17.10;11.80;;;17.50;95.90;;;;;;4951237;29;20114;-68
2021/09/04 10:11:51;;;;;;;17.30;12.65;;;17.80;95.60;;;;;;4953322;28;20486;-69
2021/09/04 10:14:18;;;;;;;22.63;13.93;;;17.90;94.60;;;;;;4947571;28;20023;-69
2021/09/04 10:16:45;;;;;;;17.77;13.40;;;17.90;93.80;;;;;;4944578;28;20093;-69
2021/09/04 10:19:15;;;;;;;19.77;13.57;;;17.90;93.70;;;;;;4945343;28;20390;-69
2021/09/04 10:21:41;;;;;;;18.08;13.70;;;17.70;94.00;;;;;;4948063;29;20083;-69
2021/09/04 10:24:08;;;;;;;18.73;12.95;;;17.70;93.90;;;;;;4947717;28;20442;-69
2021/09/04 10:26:38;;;;;;;17.85;12.85;;;17.70;94.20;;;;;;4941019;29;20031;-68
2021/09/04 10:29:09;;;;;;;19.23;12.25;;;17.80;94.00;;;;;;4950164;28;20368;-69
2021/09/04 10:31:41;;;;;;;19.63;13.35;;;17.90;94.20;;;;;;4969067;28;20184;-68
2021/09/04 10:34:32;;;;;;;23.27;14.73;;;18.10;93.80;;;;;;4953804;28;20023;-69
2021/09/04 10:37:15;;;;;;;22.05;13.32;;;18.20;93.30;;;;;;4950613;28;20114;-69
2021/09/04 10:39:54;;;;;;;17.65;12.25;;;18.20;93.30;;;;;;4955331;28;20104;-68
2021/09/04 10:42:29;;;;;;;17.23;13.02;;;18.20;93.40;;;;;;4968197;28;20089;-68
2021/09/04 10:45:03;;;;;;;17.92;13.00;;;18.20;93.10;;;;;;4959682;28;20701;-70
2021/09/04 10:47:39;;;;;;;20.27;13.45;;;18.20;93.20;;;;;;4957097;28;20367;-68
2021/09/04 10:50:32;;;;;;;17.63;12.65;;;18.10;92.80;;;;;;4952555;28;20042;-68
2021/09/04 10:53:07;;;;;;;21.60;14.60;;;18.20;93.20;;;;;;4957028;28;20023;-68
2021/09/04 10:55:40;;;;;;;17.85;12.35;;;18.30;93.30;;;;;;4955289;28;20094;-68
2021/09/04 10:58:16;;;;;;;17.80;12.93;;;18.40;93.40;;;;;;4954932;28;20367;-68
2021/09/04 11:00:50;;;;;;;20.42;13.48;;;18.60;93.00;;;;;;4951604;28;20047;-68
2021/09/04 11:03:20;;;;;;;21.50;14.32;;;18.70;92.70;;;;;;4958144;28;20038;-68
2021/09/04 11:05:49;;;;;;;17.30;12.93;;;18.80;92.30;;;;;;4965907;28;20123;-68
2021/09/04 11:08:33;;;;;;;18.98;13.52;;;18.70;91.70;;;;;;4955782;28;20047;-68
2021/09/04 11:11:15;;;;;;;17.63;12.32;;;18.60;92.10;;;;;;4954757;28;20054;-69
2021/09/04 11:13:50;;;;;;;20.27;13.07;;;18.60;92.10;;;;;;4961548;28;20026;-68
2021/09/04 11:16:40;;;;;;;17.77;12.80;;;18.70;92.10;;;;;;4958031;28;20030;-68
2021/09/04 11:19:13;;;;;;;20.60;12.68;;;18.80;92.20;;;;;;4942792;28;20395;-67
2021/09/04 11:21:49;;;;;;;20.75;14.07;;;19.00;92.10;;;;;;4953044;28;20035;-68
2021/09/04 11:24:26;;;;;;;18.73;13.18;;;19.20;91.70;;;;;;4952605;29;20069;-67
2021/09/04 11:26:55;;;;;;;23.85;13.52;;;19.20;91.30;;;;;;4953829;29;20027;-68
2021/09/04 11:29:20;;;;;;;19.40;13.27;;;19.10;91.50;;;;;;4955841;28;20070;-68
2021/09/04 11:31:51;;;;;;;19.15;13.13;;;19.20;91.60;;;;;;4953999;29;20059;-67
2021/09/04 11:34:16;;;;;;;21.85;13.13;;;19.40;91.70;;;;;;4955416;29;20066;-67
2021/09/04 11:36:42;;;;;;;18.13;11.35;;;19.50;91.20;;;;;;4954004;28;20062;-68
2021/09/04 11:39:07;;;;;;;15.98;11.43;;;19.60;91.30;;;;;;4953783;28;20079;-67
2021/09/04 11:41:43;;;;;;;19.63;12.90;;;19.80;91.20;;;;;;4955971;28;20394;-67
2021/09/04 11:44:09;;;;;;;17.08;12.63;;;19.90;90.60;;;;;;4955369;29;20039;-68
2021/09/04 11:46:34;;;;;;;16.13;12.27;;;19.80;90.30;;;;;;4955651;28;20038;-68
2021/09/04 11:49:00;;;;;;;18.02;12.90;;;19.70;90.00;;;;;;4955837;29;20042;-68
2021/09/04 11:51:25;;;;;;;19.27;13.75;;;19.60;90.10;;;;;;4955885;28;20118;-67
2021/09/04 11:54:01;;;;;;;15.98;12.13;;;19.60;90.10;;;;;;4955669;29;20429;-68
2021/09/04 11:56:32;;;;;;;20.83;13.25;;;19.70;90.20;;;;;;4955878;28;20027;-68
2021/09/04 11:59:05;;;;;;;16.92;12.27;;;19.70;90.30;;;;;;4955255;29;20030;-68
2021/09/04 12:01:31;;;;;;;18.65;12.63;;;19.80;90.60;;;;;;4955212;29;20051;-67
2021/09/04 12:03:57;;;;;;;19.15;13.10;;;19.90;90.10;;;;;;4955737;28;20039;-68
2021/09/04 12:06:22;;;;;;;17.30;11.32;;;20.00;90.00;;;;;;4954336;29;20105;-68
2021/09/04 12:08:48;;;;;;;17.73;11.05;;;20.00;90.00;;;;;;4954392;28;20032;-68
2021/09/04 12:11:14;;;;;;;16.13;11.75;;;20.10;90.10;;;;;;4954759;29;20474;-67
2021/09/04 12:13:40;;;;;;;16.77;12.25;;;20.30;90.10;;;;;;4953027;28;20027;-67
2021/09/04 12:16:08;;;;;;;16.10;11.32;;;20.40;89.60;;;;;;4955469;29;20420;-68
2021/09/04 12:18:38;;;;;;;20.13;12.57;;;20.40;88.60;;;;;;4952591;28;20027;-68
2021/09/04 12:21:22;;;;;;;16.75;11.82;;;20.40;87.80;;;;;;4955763;28;20038;-68
2021/09/04 12:23:50;;;;;;;20.15;13.07;;;20.40;88.30;;;;;;4955300;29;20027;-67
2021/09/04 12:26:18;;;;;;;17.63;13.07;;;20.50;88.20;;;;;;4955449;29;20038;-67
2021/09/04 12:28:44;;;;;;;18.00;12.75;;;20.60;88.10;;;;;;4953527;28;20497;-68